createdAt,value
2017-07-27T00:00:44.786Z,23.60
2017-07-27T00:03:12.278Z,23.50
2017-07-27T00:05:39.758Z,23.70
2017-07-27T00:08:07.243Z,23.30
2017-07-27T00:10:34.741Z,23.30
2017-07-27T00:13:02.990Z,23.10
2017-07-27T00:15:30.456Z,23.10
2017-07-27T00:17:57.950Z,23.00
2017-07-27T00:20:26.190Z,23.10
2017-07-27T00:22:53.674Z,23.00
2017-07-27T00:25:21.925Z,23.10
2017-07-27T00:27:49.406Z,23.10
2017-07-27T00:30:16.886Z,23.10
2017-07-27T00:32:44.379Z,23.10
2017-07-27T00:35:11.855Z,23.30
2017-07-27T00:37:39.335Z,23.10
2017-07-27T00:40:06.827Z,23.10
2017-07-27T00:42:34.315Z,22.90
2017-07-27T00:45:01.797Z,23.00
2017-07-27T00:47:29.287Z,23.10
2017-07-27T00:49:57.533Z,23.40
2017-07-27T00:52:25.011Z,23.30
2017-07-27T00:54:52.507Z,23.20
2017-07-27T00:57:19.990Z,23.30
2017-07-27T00:59:47.571Z,23.40
2017-07-27T01:02:15.067Z,23.10
2017-07-27T01:04:43.301Z,23.00
2017-07-27T01:07:10.771Z,22.90
2017-07-27T01:09:38.263Z,22.40
2017-07-27T01:12:05.749Z,22.40
2017-07-27T01:14:33.217Z,22.50
2017-07-27T01:17:00.700Z,22.40
2017-07-27T01:19:28.190Z,22.20
2017-07-27T01:21:56.434Z,22.10
2017-07-27T01:24:23.917Z,22.00
2017-07-27T01:26:52.168Z,22.30
2017-07-27T01:29:19.646Z,22.30
2017-07-27T01:31:47.149Z,22.40
2017-07-27T01:34:14.621Z,22.20
2017-07-27T01:36:42.095Z,22.10
2017-07-27T01:39:09.586Z,22.30
2017-07-27T01:41:37.840Z,21.80
2017-07-27T01:44:05.308Z,21.80
2017-07-27T01:46:32.801Z,22.60
2017-07-27T01:49:00.285Z,22.20
2017-07-27T01:51:27.772Z,22.10
2017-07-27T01:53:55.257Z,22.20
2017-07-27T01:56:22.738Z,22.10
2017-07-27T01:58:50.222Z,22.10
2017-07-27T02:01:17.714Z,22.00
2017-07-27T02:03:45.193Z,22.10
2017-07-27T02:06:13.438Z,22.20
2017-07-27T02:08:40.930Z,22.10
2017-07-27T02:11:09.193Z,21.90
2017-07-27T02:13:36.665Z,21.80
2017-07-27T02:16:04.923Z,21.90
2017-07-27T02:18:32.406Z,21.90
2017-07-27T02:21:00.650Z,21.70
2017-07-27T02:23:28.139Z,21.70
2017-07-27T02:25:55.646Z,21.70
2017-07-27T02:28:23.133Z,21.80
2017-07-27T02:30:50.622Z,21.60
2017-07-27T02:33:18.870Z,21.60
2017-07-27T02:35:46.341Z,21.50
2017-07-27T02:38:13.825Z,21.60
2017-07-27T02:40:41.310Z,21.40
2017-07-27T02:43:08.800Z,21.60
2017-07-27T02:45:36.285Z,21.50
2017-07-27T02:48:04.532Z,21.30
2017-07-27T02:50:32.006Z,21.20
2017-07-27T02:52:59.556Z,21.50
2017-07-27T02:55:27.029Z,21.40
2017-07-27T02:57:54.506Z,21.50
2017-07-27T03:00:22.762Z,21.50
2017-07-27T03:02:50.237Z,21.40
2017-07-27T03:05:18.484Z,21.50
2017-07-27T03:07:45.973Z,21.50
2017-07-27T03:10:14.224Z,21.50
2017-07-27T03:12:41.703Z,21.50
2017-07-27T03:15:09.965Z,21.60
2017-07-27T03:17:37.446Z,21.60
2017-07-27T03:20:05.699Z,21.70
2017-07-27T03:22:33.194Z,21.60
2017-07-27T03:25:00.666Z,21.60
2017-07-27T03:27:28.136Z,21.60
2017-07-27T03:29:55.617Z,21.60
2017-07-27T03:32:23.110Z,21.60
2017-07-27T03:34:51.353Z,22.00
2017-07-27T03:37:18.958Z,21.90
2017-07-27T03:39:47.199Z,21.60
2017-07-27T03:42:14.677Z,21.60
2017-07-27T03:44:42.166Z,21.60
2017-07-27T03:47:09.652Z,21.50
2017-07-27T03:49:37.135Z,21.60
2017-07-27T03:52:04.621Z,21.90
2017-07-27T03:54:32.873Z,21.80
2017-07-27T03:57:00.350Z,21.80
2017-07-27T03:59:27.838Z,21.90
2017-07-27T04:01:55.318Z,22.10
2017-07-27T04:04:22.811Z,21.90
2017-07-27T04:06:50.305Z,21.60
2017-07-27T04:09:18.571Z,21.60
2017-07-27T04:11:46.825Z,21.80
2017-07-27T04:14:14.321Z,21.70
2017-07-27T04:16:42.562Z,21.40
2017-07-27T04:19:10.037Z,21.40
2017-07-27T04:21:38.298Z,21.30
2017-07-27T04:24:05.777Z,21.20
2017-07-27T04:26:34.030Z,20.90
2017-07-27T04:29:01.534Z,20.80
2017-07-27T04:31:29.032Z,20.70
2017-07-27T04:33:56.514Z,20.70
2017-07-27T04:36:24.006Z,20.70
2017-07-27T04:38:52.254Z,20.90
2017-07-27T04:41:19.726Z,20.80
2017-07-27T04:43:47.990Z,20.90
2017-07-27T04:46:15.463Z,20.90
2017-07-27T04:48:43.719Z,21.10
2017-07-27T04:51:11.216Z,21.10
2017-07-27T04:53:38.723Z,20.90
2017-07-27T04:56:06.222Z,21.10
2017-07-27T04:58:34.477Z,21.60
2017-07-27T05:01:01.959Z,21.60
2017-07-27T05:03:30.231Z,21.50
2017-07-27T05:05:58.499Z,21.70
2017-07-27T05:08:25.992Z,21.70
2017-07-27T05:10:53.485Z,21.80
2017-07-27T05:13:20.983Z,21.70
2017-07-27T05:15:49.232Z,21.40
2017-07-27T05:18:16.720Z,21.30
2017-07-27T05:20:44.977Z,21.50
2017-07-27T05:23:12.461Z,21.50
2017-07-27T05:25:40.714Z,21.90
2017-07-27T05:28:08.218Z,21.90
2017-07-27T05:30:35.712Z,22.10
2017-07-27T05:33:03.210Z,21.80
2017-07-27T05:35:31.482Z,21.20
2017-07-27T05:37:58.971Z,21.10
2017-07-27T05:40:26.464Z,21.20
2017-07-27T05:42:53.968Z,21.30
2017-07-27T05:45:22.219Z,21.70
2017-07-27T05:47:49.706Z,21.60
2017-07-27T05:50:17.977Z,21.70
2017-07-27T05:52:46.234Z,21.70
2017-07-27T05:55:13.730Z,21.60
2017-07-27T05:57:41.246Z,21.80
2017-07-27T06:00:08.719Z,21.70
2017-07-27T06:02:36.204Z,22.30
2017-07-27T06:05:04.466Z,22.20
2017-07-27T06:07:32.728Z,22.10
2017-07-27T06:10:00.209Z,22.10
2017-07-27T06:12:28.486Z,22.40
2017-07-27T06:14:56.745Z,22.40
2017-07-27T06:17:24.604Z,22.40
2017-07-27T06:19:52.124Z,22.20
2017-07-27T06:22:19.600Z,22.10
2017-07-27T06:24:47.092Z,22.30
2017-07-27T06:27:14.591Z,22.30
2017-07-27T06:29:42.091Z,22.30
2017-07-27T06:32:09.570Z,22.00
2017-07-27T06:34:37.075Z,22.00
2017-07-27T06:37:04.571Z,21.90
2017-07-27T06:39:32.061Z,22.10
2017-07-27T06:42:00.334Z,22.20
2017-07-27T06:44:28.597Z,22.20
2017-07-27T06:46:56.101Z,22.20
2017-07-27T06:49:23.614Z,22.40
2017-07-27T06:51:51.093Z,22.30
2017-07-27T06:54:19.346Z,22.50
2017-07-27T06:56:46.857Z,22.40
2017-07-27T06:59:14.352Z,22.40
2017-07-27T07:01:41.853Z,22.40
2017-07-27T07:04:10.119Z,22.70
2017-07-27T07:06:38.381Z,22.70
2017-07-27T07:09:05.875Z,22.70
2017-07-27T07:11:33.397Z,22.70
2017-07-27T07:14:00.869Z,22.60
2017-07-27T07:16:28.351Z,22.90
2017-07-27T07:18:55.841Z,23.00
2017-07-27T07:21:23.331Z,23.10
2017-07-27T07:23:50.819Z,23.30
2017-07-27T07:26:19.084Z,23.30
2017-07-27T07:28:47.343Z,23.50
2017-07-27T07:31:14.841Z,23.40
2017-07-27T07:33:42.347Z,23.30
2017-07-27T07:36:09.834Z,23.10
2017-07-27T07:38:37.313Z,23.10
2017-07-27T07:41:04.822Z,23.10
2017-07-27T07:43:32.310Z,23.30
2017-07-27T07:45:59.786Z,23.30
2017-07-27T07:48:28.042Z,23.40
2017-07-27T07:50:55.527Z,23.30
2017-07-27T07:53:23.015Z,23.60
2017-07-27T07:55:50.518Z,23.60
2017-07-27T07:58:17.998Z,23.70
2017-07-27T08:00:46.252Z,23.70
2017-07-27T08:03:13.755Z,23.60
2017-07-27T08:05:41.243Z,23.80
2017-07-27T08:08:08.729Z,23.80
2017-07-27T08:10:36.236Z,23.90
2017-07-27T08:13:03.718Z,24.10
2017-07-27T08:15:31.206Z,24.10
2017-07-27T08:17:58.711Z,24.00
2017-07-27T08:20:26.215Z,24.10
2017-07-27T08:22:53.699Z,24.10
2017-07-27T08:25:21.967Z,24.40
2017-07-27T08:27:49.446Z,24.30
2017-07-27T08:30:16.948Z,24.40
2017-07-27T08:32:44.446Z,24.10
2017-07-27T08:35:11.940Z,24.20
2017-07-27T08:37:39.420Z,24.20
2017-07-27T08:40:06.907Z,24.30
2017-07-27T08:42:34.394Z,24.40
2017-07-27T08:45:02.652Z,24.40
2017-07-27T08:47:30.150Z,24.30
2017-07-27T08:49:57.629Z,24.40
2017-07-27T08:52:25.101Z,24.80
2017-07-27T08:54:52.607Z,24.80
2017-07-27T08:57:20.857Z,24.80
2017-07-27T08:59:48.338Z,24.80
2017-07-27T09:02:16.600Z,24.80
2017-07-27T09:04:44.081Z,24.70
2017-07-27T09:07:11.573Z,24.80
2017-07-27T09:09:39.070Z,24.80
2017-07-27T09:12:06.558Z,24.90
2017-07-27T09:14:34.051Z,25.00
2017-07-27T09:17:01.548Z,25.10
2017-07-27T09:19:29.033Z,25.10
2017-07-27T09:21:57.286Z,25.10
2017-07-27T09:24:24.788Z,25.10
2017-07-27T09:26:52.270Z,25.10
2017-07-27T09:29:20.264Z,25.10
2017-07-27T09:31:47.895Z,25.10
2017-07-27T09:34:15.378Z,25.20
2017-07-27T09:36:43.146Z,25.30
2017-07-27T09:39:10.986Z,25.40
2017-07-27T09:41:38.614Z,25.50
2017-07-27T09:44:06.901Z,26.40
2017-07-27T09:46:34.686Z,27.50
2017-07-27T09:49:02.357Z,28.50
2017-07-27T09:51:30.650Z,29.10
2017-07-27T09:53:58.296Z,29.40
2017-07-27T09:56:25.868Z,29.70
2017-07-27T09:58:53.939Z,29.70
2017-07-27T10:01:22.198Z,30.20
2017-07-27T10:03:50.075Z,29.90
2017-07-27T10:06:17.636Z,29.90
2017-07-27T10:08:45.914Z,30.50
2017-07-27T10:11:13.389Z,30.20
2017-07-27T10:13:40.876Z,30.00
2017-07-27T10:16:08.376Z,29.60
2017-07-27T10:18:35.863Z,28.80
2017-07-27T10:21:03.333Z,28.70
2017-07-27T10:23:30.832Z,28.20
2017-07-27T10:25:59.077Z,28.60
2017-07-27T10:28:26.558Z,28.60
2017-07-27T10:30:54.063Z,28.50
2017-07-27T10:33:21.554Z,28.70
2017-07-27T10:35:49.043Z,28.80
2017-07-27T10:38:17.306Z,28.30
2017-07-27T10:40:44.806Z,28.30
2017-07-27T10:43:12.289Z,28.30
2017-07-27T10:45:40.751Z,28.30
2017-07-27T10:48:08.226Z,28.30
2017-07-27T10:50:35.734Z,28.30
2017-07-27T10:53:04.019Z,28.60
2017-07-27T10:55:32.267Z,28.50
2017-07-27T10:57:59.737Z,28.50
2017-07-27T11:00:27.229Z,28.70
2017-07-27T11:02:54.715Z,28.50
2017-07-27T11:05:22.195Z,28.50
2017-07-27T11:07:49.676Z,28.70
2017-07-27T11:10:17.158Z,28.70
2017-07-27T11:12:44.923Z,28.60
2017-07-27T11:15:12.423Z,28.20
2017-07-27T11:17:39.921Z,28.00
2017-07-27T11:20:08.167Z,27.90
2017-07-27T11:22:35.654Z,27.90
2017-07-27T11:25:03.148Z,28.10
2017-07-27T11:27:30.630Z,27.70
2017-07-27T11:29:58.121Z,27.60
2017-07-27T11:32:25.609Z,27.80
2017-07-27T11:34:53.854Z,27.90
2017-07-27T11:37:21.350Z,27.90
2017-07-27T11:39:48.838Z,27.70
2017-07-27T11:42:16.394Z,27.60
2017-07-27T11:44:43.893Z,27.60
2017-07-27T11:47:11.374Z,28.10
2017-07-27T11:49:39.621Z,27.70
2017-07-27T11:52:07.116Z,27.70
2017-07-27T11:54:34.605Z,27.90
2017-07-27T11:57:02.470Z,28.30
2017-07-27T11:59:29.957Z,28.60
2017-07-27T12:01:57.442Z,28.50
2017-07-27T12:04:24.916Z,28.00
2017-07-27T12:06:53.189Z,28.40
2017-07-27T12:09:21.455Z,28.10
2017-07-27T12:11:48.938Z,28.10
2017-07-27T12:14:16.437Z,28.50
2017-07-27T12:16:43.905Z,28.40
2017-07-27T12:19:11.385Z,28.10
2017-07-27T12:21:38.896Z,28.10
2017-07-27T12:24:06.560Z,27.90
2017-07-27T12:26:34.043Z,28.30
2017-07-27T12:29:01.563Z,28.10
2017-07-27T12:31:29.057Z,28.00
2017-07-27T12:33:56.540Z,27.90
2017-07-27T12:36:24.158Z,28.00
2017-07-27T12:38:51.671Z,27.90
2017-07-27T12:41:19.439Z,28.10
2017-07-27T12:43:47.886Z,28.10
2017-07-27T12:46:16.694Z,27.90
2017-07-27T12:48:44.520Z,27.90
2017-07-27T12:51:12.389Z,28.10
2017-07-27T12:53:40.154Z,28.20
2017-07-27T12:56:07.879Z,28.30
2017-07-27T12:58:36.515Z,28.80
2017-07-27T13:01:04.011Z,28.80
2017-07-27T13:03:31.541Z,28.30
2017-07-27T13:05:59.228Z,28.10
2017-07-27T13:08:26.799Z,28.50
2017-07-27T13:10:54.375Z,28.40
2017-07-27T13:13:22.894Z,28.70
2017-07-27T13:15:50.534Z,28.60
2017-07-27T13:18:18.115Z,28.30
2017-07-27T13:20:46.355Z,28.30
2017-07-27T13:23:14.780Z,28.50
2017-07-27T13:25:42.357Z,28.50
2017-07-27T13:28:10.159Z,28.60
2017-07-27T13:30:38.468Z,28.30
2017-07-27T13:33:06.819Z,28.30
2017-07-27T13:35:35.255Z,28.20
2017-07-27T13:38:03.773Z,28.20
2017-07-27T13:40:31.250Z,28.00
2017-07-27T13:42:59.504Z,28.40
2017-07-27T13:45:26.984Z,28.40
2017-07-27T13:47:55.234Z,28.60
2017-07-27T13:50:22.734Z,28.50
2017-07-27T13:52:50.214Z,28.60
2017-07-27T13:55:17.693Z,28.10
2017-07-27T13:57:45.229Z,28.10
2017-07-27T14:00:12.702Z,28.40
2017-07-27T14:02:40.174Z,28.30
2017-07-27T14:05:07.671Z,28.60
2017-07-27T14:07:35.926Z,28.40
2017-07-27T14:10:03.405Z,28.30
2017-07-27T14:12:31.653Z,28.70
2017-07-27T14:14:59.134Z,28.70
2017-07-27T14:17:26.604Z,28.00
2017-07-27T14:19:54.856Z,28.60
2017-07-27T14:22:22.354Z,28.60
2017-07-27T14:24:49.826Z,29.00
2017-07-27T14:27:17.327Z,28.50
2017-07-27T14:29:45.406Z,28.10
2017-07-27T14:32:13.862Z,28.80
2017-07-27T14:34:41.368Z,29.20
2017-07-27T14:37:09.806Z,29.10
2017-07-27T14:39:37.307Z,29.10
2017-07-27T14:42:05.683Z,28.70
2017-07-27T14:44:33.925Z,28.80
2017-07-27T14:47:01.415Z,28.80
2017-07-27T14:49:28.918Z,28.70
2017-07-27T14:51:56.396Z,28.80
2017-07-27T14:54:23.880Z,28.50
2017-07-27T14:56:51.373Z,28.80
2017-07-27T14:59:19.038Z,28.70
2017-07-27T15:01:46.605Z,28.80
2017-07-27T15:04:14.110Z,28.80
2017-07-27T15:06:41.593Z,29.10
2017-07-27T15:09:09.103Z,29.10
2017-07-27T15:11:36.650Z,28.60
2017-07-27T15:14:04.206Z,28.50
2017-07-27T15:16:31.785Z,29.10
2017-07-27T15:18:59.281Z,29.50
2017-07-27T15:21:26.775Z,29.50
2017-07-27T15:23:54.320Z,29.20
2017-07-27T15:26:22.579Z,29.10
2017-07-27T15:28:50.066Z,29.10
2017-07-27T15:31:17.546Z,29.20
2017-07-27T15:33:45.038Z,29.10
2017-07-27T15:36:12.523Z,29.10
2017-07-27T15:38:39.991Z,28.50
2017-07-27T15:41:08.249Z,28.80
2017-07-27T15:43:35.726Z,28.80
2017-07-27T15:46:03.969Z,28.90
2017-07-27T15:48:31.470Z,28.90
2017-07-27T15:50:59.714Z,28.90
2017-07-27T15:53:27.185Z,28.80
2017-07-27T15:55:54.674Z,28.90
2017-07-27T15:58:22.164Z,29.10
2017-07-27T16:00:49.652Z,29.00
2017-07-27T16:03:17.274Z,29.10
2017-07-27T16:05:44.884Z,29.20
2017-07-27T16:08:12.358Z,29.10
2017-07-27T16:10:40.773Z,29.20
2017-07-27T16:13:08.253Z,29.20
2017-07-27T16:15:35.726Z,29.10
2017-07-27T16:18:03.218Z,29.10
2017-07-27T16:20:31.637Z,28.20
2017-07-27T16:22:59.110Z,28.20
2017-07-27T16:25:26.606Z,28.30
2017-07-27T16:27:54.851Z,28.90
2017-07-27T16:30:22.334Z,28.80
2017-07-27T16:32:49.826Z,29.30
2017-07-27T16:35:17.331Z,29.30
2017-07-27T16:37:44.824Z,29.10
2017-07-27T16:40:13.076Z,29.10
2017-07-27T16:42:40.567Z,29.10
2017-07-27T16:45:08.047Z,29.40
2017-07-27T16:47:35.859Z,28.90
2017-07-27T16:50:03.351Z,28.80
2017-07-27T16:52:31.919Z,28.90
2017-07-27T16:54:59.420Z,28.90
2017-07-27T16:57:26.903Z,29.00
2017-07-27T16:59:54.392Z,29.00
2017-07-27T17:02:21.915Z,29.20
2017-07-27T17:04:49.416Z,29.30
2017-07-27T17:07:17.047Z,29.40
2017-07-27T17:09:44.750Z,29.30
2017-07-27T17:12:12.994Z,29.30
2017-07-27T17:14:40.581Z,29.20
2017-07-27T17:17:08.074Z,29.10
2017-07-27T17:19:35.562Z,28.80
2017-07-27T17:22:03.039Z,29.00
2017-07-27T17:24:30.735Z,29.10
2017-07-27T17:26:58.980Z,29.20
2017-07-27T17:29:26.448Z,29.20
2017-07-27T17:31:53.947Z,29.10
2017-07-27T17:34:21.430Z,29.10
2017-07-27T17:36:48.913Z,29.00
2017-07-27T17:39:16.426Z,28.90
2017-07-27T17:41:43.906Z,28.60
2017-07-27T17:44:11.394Z,28.50
2017-07-27T17:46:38.893Z,28.80
2017-07-27T17:49:06.366Z,28.80
2017-07-27T17:51:33.846Z,28.90
2017-07-27T17:54:01.337Z,28.90
2017-07-27T17:56:28.814Z,29.00
2017-07-27T17:58:57.067Z,28.90
2017-07-27T18:01:24.568Z,28.90
2017-07-27T18:03:52.040Z,28.80
2017-07-27T18:06:19.526Z,28.60
2017-07-27T18:08:47.017Z,28.70
2017-07-27T18:11:14.499Z,28.70
2017-07-27T18:13:41.988Z,28.50
2017-07-27T18:16:09.482Z,28.50
2017-07-27T18:18:36.970Z,28.60
2017-07-27T18:21:04.441Z,28.50
2017-07-27T18:23:31.932Z,28.60
2017-07-27T18:25:59.401Z,28.50
2017-07-27T18:28:26.882Z,28.50
2017-07-27T18:30:54.495Z,28.40
2017-07-27T18:33:21.979Z,28.30
2017-07-27T18:35:49.462Z,28.20
2017-07-27T18:38:16.956Z,28.20
2017-07-27T18:40:44.443Z,28.20
2017-07-27T18:43:11.926Z,28.10
2017-07-27T18:45:39.432Z,28.10
2017-07-27T18:48:06.914Z,28.00
2017-07-27T18:50:34.415Z,28.00
2017-07-27T18:53:01.905Z,28.00
2017-07-27T18:55:29.486Z,27.90
2017-07-27T18:57:57.302Z,28.00
2017-07-27T19:00:24.811Z,27.90
2017-07-27T19:02:52.288Z,27.90
2017-07-27T19:05:19.761Z,27.90
2017-07-27T19:07:47.262Z,27.80
2017-07-27T19:10:14.742Z,27.80
2017-07-27T19:12:42.218Z,27.70
2017-07-27T19:15:09.730Z,27.70
2017-07-27T19:17:37.974Z,27.70
2017-07-27T19:20:05.459Z,27.60
2017-07-27T19:22:32.981Z,27.60
2017-07-27T19:25:00.518Z,27.60
2017-07-27T19:27:27.997Z,27.60
2017-07-27T19:29:55.506Z,27.60
2017-07-27T19:32:23.760Z,27.60
2017-07-27T19:34:51.233Z,27.50
2017-07-27T19:37:19.506Z,27.50
2017-07-27T19:39:47.118Z,27.50
2017-07-27T19:42:14.615Z,27.40
2017-07-27T19:44:42.125Z,27.30
2017-07-27T19:47:09.606Z,27.20
2017-07-27T19:49:37.079Z,27.20
2017-07-27T19:52:04.573Z,27.20
2017-07-27T19:54:32.056Z,27.20
2017-07-27T19:56:59.543Z,27.20
2017-07-27T19:59:27.034Z,27.10
2017-07-27T20:01:54.508Z,27.00
2017-07-27T20:04:21.986Z,26.90
2017-07-27T20:06:49.475Z,26.90
2017-07-27T20:09:16.959Z,26.90
2017-07-27T20:11:44.434Z,26.90
2017-07-27T20:14:12.721Z,26.80
2017-07-27T20:16:40.198Z,26.80
2017-07-27T20:19:07.670Z,26.90
2017-07-27T20:21:35.724Z,26.90
2017-07-27T20:24:04.226Z,26.90
2017-07-27T20:26:33.063Z,26.90
2017-07-27T20:29:02.092Z,26.80
2017-07-27T20:31:29.793Z,26.80
2017-07-27T20:33:59.180Z,26.80
2017-07-27T20:36:27.458Z,26.80
2017-07-27T20:38:55.623Z,26.80
2017-07-27T20:41:23.626Z,26.60
2017-07-27T20:43:51.779Z,26.60
2017-07-27T20:46:20.379Z,26.60
2017-07-27T20:48:48.400Z,26.60
2017-07-27T20:51:16.204Z,26.60
2017-07-27T20:53:44.274Z,26.70
2017-07-27T20:56:11.763Z,26.70
2017-07-27T20:58:39.887Z,26.60
2017-07-27T21:01:08.389Z,26.60
2017-07-27T21:03:37.352Z,26.60
2017-07-27T21:06:05.698Z,26.60
2017-07-27T21:08:33.190Z,26.50
2017-07-27T21:11:00.673Z,26.50
2017-07-27T21:13:28.191Z,26.50
2017-07-27T21:15:55.670Z,26.60
2017-07-27T21:18:24.168Z,26.30
2017-07-27T21:20:51.674Z,26.30
2017-07-27T21:23:19.155Z,26.40
2017-07-27T21:25:47.397Z,26.40
2017-07-27T21:28:14.897Z,26.30
2017-07-27T21:30:42.392Z,26.40
2017-07-27T21:33:09.874Z,26.30
2017-07-27T21:35:37.575Z,26.00
2017-07-27T21:38:05.176Z,26.00
2017-07-27T21:40:32.773Z,26.10
2017-07-27T21:43:00.276Z,26.00
2017-07-27T21:45:27.750Z,25.90
2017-07-27T21:47:55.463Z,26.00
2017-07-27T21:50:22.959Z,25.90
2017-07-27T21:52:50.442Z,25.80
2017-07-27T21:55:17.926Z,25.80
2017-07-27T21:57:45.425Z,25.80
2017-07-27T22:00:13.670Z,25.50
2017-07-27T22:02:41.135Z,25.40
2017-07-27T22:05:08.638Z,25.50
2017-07-27T22:07:36.123Z,25.70
2017-07-27T22:10:03.606Z,25.60
2017-07-27T22:12:31.089Z,25.70
2017-07-27T22:14:58.566Z,25.50
2017-07-27T22:17:26.130Z,25.30
2017-07-27T22:19:53.654Z,25.30
2017-07-27T22:22:21.163Z,25.40
2017-07-27T22:24:48.693Z,25.30
2017-07-27T22:27:16.214Z,25.20
2017-07-27T22:30:01.502Z,25.10
2017-07-27T22:32:28.998Z,25.00
2017-07-27T22:34:56.485Z,25.00
2017-07-27T22:37:23.970Z,25.00
2017-07-27T22:39:51.462Z,24.90
2017-07-27T22:42:18.938Z,24.90
2017-07-27T22:44:46.410Z,24.90
2017-07-27T22:47:13.902Z,24.80
2017-07-27T22:49:41.393Z,24.80
2017-07-27T22:52:09.649Z,24.90
2017-07-27T22:54:37.147Z,24.90
2017-07-27T22:57:04.635Z,25.00
2017-07-27T22:59:32.119Z,24.90
2017-07-27T23:01:59.615Z,24.80
2017-07-27T23:04:27.091Z,24.70
2017-07-27T23:06:54.590Z,24.70
2017-07-27T23:09:22.069Z,24.70
2017-07-27T23:11:49.651Z,24.60
2017-07-27T23:14:17.145Z,24.60
2017-07-27T23:16:44.656Z,24.80
2017-07-27T23:19:12.910Z,24.60
2017-07-27T23:21:40.398Z,24.60
2017-07-27T23:24:09.369Z,24.60
2017-07-27T23:26:36.846Z,24.60
2017-07-27T23:29:05.097Z,24.50
2017-07-27T23:31:32.595Z,24.40
2017-07-27T23:34:00.135Z,24.40
2017-07-27T23:36:27.609Z,24.40
2017-07-27T23:38:55.107Z,24.40
2017-07-27T23:41:22.585Z,24.40
2017-07-27T23:43:50.080Z,24.30
2017-07-27T23:46:18.342Z,24.30
2017-07-27T23:48:45.826Z,24.30
2017-07-27T23:51:13.310Z,24.30
2017-07-27T23:53:40.814Z,24.40
2017-07-27T23:56:08.289Z,24.40
2017-07-27T23:58:36.534Z,24.20
